Time;durP1;ratioP1;P1;durP2;ratioP2;P2;SDS_P1;SDS_P2;PMS_P1;PMS_P2;Temp;Humidity;BMP_temperature;BMP_pressure;BME280_temperature;BME280_humidity;BME280_pressure;Samples;Min_cycle;Max_cycle;Signal;HPM_P1;HPM_P2
2021/10/15 00:00:53;;;;;;;6.57;3.03;;;;;;;;;;5035822;28;20026;-53
2021/10/15 00:03:19;;;;;;;5.70;2.83;;;;;;;;;;5035653;28;20044;-53
2021/10/15 00:05:45;;;;;;;5.40;3.33;;;;;;;;;;5034894;28;20355;-53
2021/10/15 00:08:11;;;;;;;11.02;3.83;;;;;;;;;;5035677;28;20021;-53
2021/10/15 00:10:37;;;;;;;6.75;2.88;;;;;;;;;;5035890;28;20443;-53
2021/10/15 00:13:03;;;;;;;10.35;3.50;;;;;;;;;;5035471;28;20044;-53
2021/10/15 00:15:29;;;;;;;6.35;3.58;;;;;;;;;;5034844;28;20029;-53
2021/10/15 00:17:55;;;;;;;4.78;2.50;;;;;;;;;;5035432;28;20034;-53
2021/10/15 00:20:21;;;;;;;5.60;3.03;;;;;;;;;;5035113;28;20076;-53
2021/10/15 00:22:47;;;;;;;4.78;2.55;;;;;;;;;;5035558;28;20033;-53
2021/10/15 00:25:13;;;;;;;4.97;2.60;;;;;;;;;;5034559;28;20124;-53
2021/10/15 00:27:39;;;;;;;4.68;2.28;;;;;;;;;;5035115;28;20037;-53
2021/10/15 00:30:05;;;;;;;4.43;2.55;;;;;;;;;;5035242;28;20084;-53
2021/10/15 00:32:31;;;;;;;7.00;3.05;;;;;;;;;;5035252;28;20144;-53
2021/10/15 00:34:57;;;;;;;7.35;3.65;;;;;;;;;;5034184;28;20463;-54
2021/10/15 00:37:23;;;;;;;5.00;2.83;;;;;;;;;;5035425;28;20046;-53
2021/10/15 00:39:49;;;;;;;6.78;3.33;;;;;;;;;;5034670;28;20467;-54
2021/10/15 00:42:15;;;;;;;5.97;2.75;;;;;;;;;;5034856;28;20033;-53
2021/10/15 00:44:41;;;;;;;3.30;2.20;;;;;;;;;;5034487;28;20025;-52
2021/10/15 00:47:07;;;;;;;4.18;2.35;;;;;;;;;;5035194;28;20029;-53
2021/10/15 00:49:33;;;;;;;4.90;2.35;;;;;;;;;;5034269;28;20489;-53
2021/10/15 00:51:59;;;;;;;4.72;2.55;;;;;;;;;;5034602;28;20037;-53
2021/10/15 00:54:26;;;;;;;4.35;2.40;;;;;;;;;;5034200;28;20025;-53
2021/10/15 00:56:53;;;;;;;5.75;3.20;;;;;;;;;;5034885;28;20072;-54
2021/10/15 00:59:20;;;;;;;5.60;2.58;;;;;;;;;;5034715;28;20026;-53
2021/10/15 01:01:46;;;;;;;3.58;2.17;;;;;;;;;;5034666;28;20025;-52
2021/10/15 01:04:13;;;;;;;3.03;2.40;;;;;;;;;;5033950;28;20026;-53
2021/10/15 01:06:39;;;;;;;5.93;3.15;;;;;;;;;;5034135;28;20374;-53
2021/10/15 01:09:06;;;;;;;5.05;2.40;;;;;;;;;;5034281;28;20033;-53
2021/10/15 01:11:32;;;;;;;5.43;2.85;;;;;;;;;;5034767;28;20018;-53
2021/10/15 01:13:58;;;;;;;7.90;2.28;;;;;;;;;;5033865;28;20109;-53
2021/10/15 01:16:29;;;;;;;6.80;2.70;;;;;;;;;;5034341;28;20025;-53
2021/10/15 01:18:55;;;;;;;;;;;;;;;;;;5034735;28;20044;-53
2021/10/15 01:21:21;;;;;;;7.13;3.35;;;;;;;;;;5033868;28;19905;-53
2021/10/15 01:23:47;;;;;;;9.25;2.35;;;;;;;;;;5033623;28;20037;-53
2021/10/15 01:26:12;;;;;;;6.25;2.60;;;;;;;;;;5033810;28;20033;-52
2021/10/15 01:28:38;;;;;;;5.32;2.53;;;;;;;;;;5034482;28;20029;-53
2021/10/15 01:31:04;;;;;;;3.72;2.60;;;;;;;;;;5033948;28;20090;-53
2021/10/15 01:33:31;;;;;;;8.02;2.13;;;;;;;;;;5033680;28;20037;-53
2021/10/15 01:35:57;;;;;;;4.90;3.35;;;;;;;;;;5033481;28;20112;-53
2021/10/15 01:38:23;;;;;;;5.97;2.72;;;;;;;;;;5033819;28;20124;-53
2021/10/15 01:40:49;;;;;;;5.82;2.75;;;;;;;;;;5034087;28;20064;-53
2021/10/15 01:43:21;;;;;;;3.92;2.42;;;;;;;;;;5033969;28;20102;-53
2021/10/15 01:45:47;;;;;;;5.32;3.42;;;;;;;;;;5033087;28;20025;-53
2021/10/15 01:48:13;;;;;;;5.45;2.75;;;;;;;;;;5034197;28;20022;-53
2021/10/15 01:50:39;;;;;;;5.43;3.13;;;;;;;;;;5033372;28;20499;-53
2021/10/15 01:53:05;;;;;;;4.65;2.80;;;;;;;;;;5033576;28;20037;-53
2021/10/15 01:55:32;;;;;;;4.70;2.72;;;;;;;;;;5033342;28;20029;-53
2021/10/15 01:57:58;;;;;;;7.18;2.72;;;;;;;;;;5033716;28;20041;-53
2021/10/15 02:00:23;;;;;;;5.10;2.72;;;;;;;;;;5032733;28;20025;-53
2021/10/15 02:02:49;;;;;;;4.10;2.42;;;;;;;;;;5033263;28;20447;-53
2021/10/15 02:05:17;;;;;;;4.72;2.25;;;;;;;;;;5043676;28;20056;-53
2021/10/15 02:07:43;;;;;;;4.28;2.22;;;;;;;;;;5053311;28;20035;-52
2021/10/15 02:10:10;;;;;;;3.63;2.17;;;;;;;;;;5053208;28;20124;-53
2021/10/15 02:12:36;;;;;;;4.00;2.10;;;;;;;;;;5053036;28;20474;-53
2021/10/15 02:15:03;;;;;;;3.88;2.40;;;;;;;;;;5052522;28;20029;-53
2021/10/15 02:17:29;;;;;;;4.05;2.40;;;;;;;;;;5053257;28;20032;-53
2021/10/15 02:19:55;;;;;;;3.80;2.42;;;;;;;;;;5052916;28;20028;-52
2021/10/15 02:22:21;;;;;;;5.57;2.90;;;;;;;;;;5053224;28;20071;-53
2021/10/15 02:24:47;;;;;;;4.93;2.35;;;;;;;;;;5052328;28;20029;-53
2021/10/15 02:27:13;;;;;;;7.10;2.33;;;;;;;;;;5053131;28;20347;-53
2021/10/15 02:29:39;;;;;;;5.05;2.53;;;;;;;;;;5053042;28;20029;-53
2021/10/15 02:32:05;;;;;;;4.50;2.60;;;;;;;;;;5052964;28;20091;-53
2021/10/15 02:34:31;;;;;;;3.15;2.22;;;;;;;;;;5051719;28;20033;-53
2021/10/15 02:36:57;;;;;;;6.18;3.25;;;;;;;;;;5052796;28;20039;-53
2021/10/15 02:39:23;;;;;;;7.20;3.05;;;;;;;;;;5052957;28;20028;-53
2021/10/15 02:41:49;;;;;;;6.30;3.35;;;;;;;;;;5052860;28;20037;-53
2021/10/15 02:44:15;;;;;;;5.82;3.15;;;;;;;;;;5051859;28;20458;-53
2021/10/15 02:46:41;;;;;;;4.75;2.53;;;;;;;;;;5053199;28;20066;-53
2021/10/15 02:49:08;;;;;;;5.65;2.35;;;;;;;;;;5040703;28;20512;-53
2021/10/15 02:51:34;;;;;;;4.07;2.72;;;;;;;;;;5035651;28;20064;-53
2021/10/15 02:54:00;;;;;;;5.40;2.90;;;;;;;;;;5051938;28;20064;-53
2021/10/15 02:56:26;;;;;;;8.82;2.47;;;;;;;;;;5045336;28;20039;-53
2021/10/15 02:58:52;;;;;;;3.95;2.05;;;;;;;;;;5032822;28;20452;-53
2021/10/15 03:01:18;;;;;;;5.32;2.47;;;;;;;;;;5032736;28;20026;-52
2021/10/15 03:03:44;;;;;;;7.25;2.65;;;;;;;;;;5032116;28;20018;-52
2021/10/15 03:06:10;;;;;;;4.68;2.60;;;;;;;;;;5032726;28;20444;-53
2021/10/15 03:08:36;;;;;;;6.22;2.53;;;;;;;;;;5032975;28;20022;-53
2021/10/15 03:11:03;;;;;;;7.93;2.58;;;;;;;;;;5032502;28;20112;-53
2021/10/15 03:13:29;;;;;;;4.75;2.28;;;;;;;;;;5036434;28;20439;-53
2021/10/15 03:15:55;;;;;;;4.45;2.60;;;;;;;;;;5036484;28;20535;-53
2021/10/15 03:18:21;;;;;;;5.15;2.72;;;;;;;;;;5036921;28;20128;-53
2021/10/15 03:20:47;;;;;;;5.50;2.03;;;;;;;;;;5036169;28;20025;-53
2021/10/15 03:23:13;;;;;;;3.88;2.53;;;;;;;;;;5036832;28;20030;-53
2021/10/15 03:25:39;;;;;;;3.10;2.22;;;;;;;;;;5035637;28;20471;-53
2021/10/15 03:28:06;;;;;;;4.60;2.25;;;;;;;;;;5036598;28;20116;-53
2021/10/15 03:30:32;;;;;;;4.20;2.53;;;;;;;;;;5035590;28;20041;-53
2021/10/15 03:32:58;;;;;;;3.20;2.08;;;;;;;;;;5036401;28;20021;-53
2021/10/15 03:35:24;;;;;;;4.05;2.60;;;;;;;;;;5035704;28;20048;-53
2021/10/15 03:37:50;;;;;;;4.22;2.58;;;;;;;;;;5036347;28;20065;-53
2021/10/15 03:40:16;;;;;;;3.60;2.08;;;;;;;;;;5036165;28;20087;-53
2021/10/15 03:42:42;;;;;;;3.45;2.08;;;;;;;;;;5036191;28;20060;-53
2021/10/15 03:45:09;;;;;;;2.65;2.00;;;;;;;;;;5035547;28;20032;-53
2021/10/15 03:47:36;;;;;;;3.10;2.20;;;;;;;;;;5035877;28;20494;-53
2021/10/15 03:50:03;;;;;;;4.57;1.95;;;;;;;;;;5035860;28;20457;-53
2021/10/15 03:52:29;;;;;;;4.43;1.67;;;;;;;;;;5036419;28;20029;-53
2021/10/15 03:54:55;;;;;;;4.82;2.42;;;;;;;;;;5035382;28;20045;-53
2021/10/15 03:57:21;;;;;;;4.18;2.67;;;;;;;;;;5035962;28;20033;-53
2021/10/15 03:59:47;;;;;;;3.90;2.20;;;;;;;;;;5035745;28;20028;-52
2021/10/15 04:02:13;;;;;;;2.20;1.67;;;;;;;;;;5036083;28;20497;-53
2021/10/15 04:04:39;;;;;;;11.48;2.28;;;;;;;;;;5035021;28;20117;-53
2021/10/15 04:07:05;;;;;;;4.88;2.33;;;;;;;;;;5035618;28;20021;-53
2021/10/15 04:09:31;;;;;;;5.50;2.28;;;;;;;;;;5035949;28;20029;-52
2021/10/15 04:11:57;;;;;;;4.93;2.35;;;;;;;;;;5035370;28;20071;-53
2021/10/15 04:14:23;;;;;;;4.05;2.25;;;;;;;;;;5034623;28;20021;-53
2021/10/15 04:16:49;;;;;;;5.63;2.42;;;;;;;;;;5035724;28;20037;-53
2021/10/15 04:19:16;;;;;;;4.43;2.05;;;;;;;;;;5035540;28;20029;-53
2021/10/15 04:21:42;;;;;;;5.28;2.25;;;;;;;;;;5035402;28;20049;-53
2021/10/15 04:24:08;;;;;;;7.50;2.35;;;;;;;;;;5033607;28;20033;-52
2021/10/15 04:26:34;;;;;;;3.42;1.90;;;;;;;;;;5035393;28;20029;-53
2021/10/15 04:29:00;;;;;;;5.35;1.80;;;;;;;;;;5034933;28;20025;-52
2021/10/15 04:31:26;;;;;;;4.88;1.90;;;;;;;;;;5035096;28;20048;-53
2021/10/15 04:33:52;;;;;;;9.38;2.22;;;;;;;;;;5034923;28;20351;-53
2021/10/15 04:36:18;;;;;;;2.63;1.85;;;;;;;;;;5035033;28;20033;-52
2021/10/15 04:38:44;;;;;;;5.60;1.88;;;;;;;;;;5035273;28;20037;-52
2021/10/15 04:41:10;;;;;;;4.30;2.13;;;;;;;;;;5035226;28;20447;-53
2021/10/15 04:43:36;;;;;;;3.78;2.50;;;;;;;;;;5034391;28;20032;-53
2021/10/15 04:46:02;;;;;;;3.90;1.73;;;;;;;;;;5035293;28;20022;-53
2021/10/15 04:48:28;;;;;;;3.22;1.98;;;;;;;;;;5034787;28;20403;-52
2021/10/15 04:50:55;;;;;;;4.05;2.20;;;;;;;;;;5034883;28;20029;-53
2021/10/15 04:53:21;;;;;;;4.30;2.17;;;;;;;;;;5035052;28;20025;-53
2021/10/15 04:55:47;;;;;;;8.60;2.22;;;;;;;;;;5033845;28;20040;-53
2021/10/15 04:58:13;;;;;;;5.70;2.50;;;;;;;;;;5034392;28;20120;-53
2021/10/15 05:00:39;;;;;;;4.65;2.92;;;;;;;;;;5034747;28;20034;-53
2021/10/15 05:03:05;;;;;;;5.93;2.78;;;;;;;;;;5035127;28;20030;-53
2021/10/15 05:05:32;;;;;;;5.07;2.60;;;;;;;;;;5033809;28;20022;-53
2021/10/15 05:07:59;;;;;;;7.50;2.60;;;;;;;;;;5034624;28;20030;-53
2021/10/15 05:10:27;;;;;;;4.97;2.47;;;;;;;;;;5034400;28;20057;-52
2021/10/15 05:12:53;;;;;;;4.50;2.28;;;;;;;;;;5034372;28;20033;-53
2021/10/15 05:15:20;;;;;;;3.38;1.85;;;;;;;;;;5033772;28;20026;-53
2021/10/15 05:17:47;;;;;;;5.57;2.83;;;;;;;;;;5034531;28;21514;-53
2021/10/15 05:20:15;;;;;;;2.60;1.75;;;;;;;;;;5034278;28;20104;-53
2021/10/15 05:22:41;;;;;;;4.95;2.53;;;;;;;;;;5034105;28;20033;-53
2021/10/15 05:25:08;;;;;;;3.45;2.15;;;;;;;;;;5033333;28;20040;-53
2021/10/15 05:27:34;;;;;;;3.70;2.42;;;;;;;;;;5033903;28;20030;-53
2021/10/15 05:30:00;;;;;;;3.95;2.22;;;;;;;;;;5034145;28;20030;-53
2021/10/15 05:32:27;;;;;;;3.97;2.10;;;;;;;;;;5034259;28;20403;-53
2021/10/15 05:34:53;;;;;;;4.68;2.40;;;;;;;;;;5033276;28;20063;-53
2021/10/15 05:37:20;;;;;;;4.53;2.05;;;;;;;;;;5034150;28;20042;-53
2021/10/15 05:39:46;;;;;;;4.32;2.88;;;;;;;;;;5033713;28;20029;-53
2021/10/15 05:42:13;;;;;;;3.92;2.33;;;;;;;;;;5033988;28;20108;-53
2021/10/15 05:44:40;;;;;;;6.85;2.50;;;;;;;;;;5033076;28;20443;-53
2021/10/15 05:47:06;;;;;;;5.82;2.22;;;;;;;;;;5033904;28;20026;-53
2021/10/15 05:49:34;;;;;;;6.03;2.63;;;;;;;;;;5033904;28;20030;-53
2021/10/15 05:52:06;;;;;;;3.10;2.03;;;;;;;;;;5033862;28;20026;-53
2021/10/15 05:55:10;;;;;;;4.32;2.20;;;;;;;;;;5033151;28;20029;-53
2021/10/15 06:00:08;;;;;;;3.55;2.28;;;;;;;;;;5033965;28;20378;-53
2021/10/15 06:02:36;;;;;;;7.82;3.10;;;;;;;;;;5033514;28;20452;-53
2021/10/15 06:10:20;;;;;;;4.22;2.72;;;;;;;;;;5033547;28;20371;-53
2021/10/15 06:16:01;;;;;;;9.40;2.70;;;;;;;;;;5033526;28;20022;-53
2021/10/15 06:18:35;;;;;;;5.00;2.33;;;;;;;;;;5033212;28;20120;-53
2021/10/15 06:21:01;;;;;;;4.00;2.13;;;;;;;;;;5033553;28;20028;-53
2021/10/15 06:23:30;;;;;;;3.05;2.03;;;;;;;;;;5032760;28;20400;-54
2021/10/15 06:25:56;;;;;;;5.05;2.63;;;;;;;;;;5033596;28;20359;-53
2021/10/15 06:28:22;;;;;;;3.28;2.40;;;;;;;;;;5033143;28;20021;-53
2021/10/15 06:30:49;;;;;;;6.05;2.78;;;;;;;;;;5033294;28;20092;-53
2021/10/15 06:33:15;;;;;;;6.40;2.80;;;;;;;;;;5033229;28;20055;-53
2021/10/15 06:35:41;;;;;;;6.90;3.25;;;;;;;;;;5032740;28;20021;-54
2021/10/15 06:38:07;;;;;;;8.60;3.33;;;;;;;;;;5032395;28;20474;-53
2021/10/15 06:40:37;;;;;;;6.53;3.35;;;;;;;;;;5033507;28;20082;-53
2021/10/15 06:43:05;;;;;;;7.60;3.63;;;;;;;;;;5033053;28;20025;-53
2021/10/15 06:45:31;;;;;;;9.00;3.15;;;;;;;;;;5032522;28;20029;-53
2021/10/15 06:47:57;;;;;;;9.93;3.95;;;;;;;;;;5032419;28;20030;-53
2021/10/15 06:50:23;;;;;;;8.70;3.95;;;;;;;;;;5033100;28;20025;-53
2021/10/15 06:52:49;;;;;;;8.10;3.72;;;;;;;;;;5032420;28;20333;-53
2021/10/15 06:55:17;;;;;;;5.35;3.05;;;;;;;;;;5032124;28;20089;-53
2021/10/15 06:57:43;;;;;;;12.10;3.55;;;;;;;;;;5032940;28;20038;-53
2021/10/15 07:00:09;;;;;;;6.50;2.75;;;;;;;;;;5032404;28;20104;-54
2021/10/15 07:02:35;;;;;;;5.15;2.83;;;;;;;;;;5033082;28;20104;-54
2021/10/15 07:05:02;;;;;;;8.07;3.20;;;;;;;;;;5032609;28;20423;-53
2021/10/15 07:07:27;;;;;;;5.60;3.55;;;;;;;;;;5032256;28;20456;-53
2021/10/15 07:09:53;;;;;;;6.72;3.13;;;;;;;;;;5032707;28;20036;-53
2021/10/15 07:12:19;;;;;;;10.95;4.03;;;;;;;;;;5032550;28;20350;-53
2021/10/15 07:14:45;;;;;;;7.35;3.20;;;;;;;;;;5032269;28;20017;-53
2021/10/15 07:17:11;;;;;;;7.65;3.40;;;;;;;;;;5032643;28;20332;-53
2021/10/15 07:19:37;;;;;;;6.10;3.00;;;;;;;;;;5032875;28;20040;-53
2021/10/15 07:22:03;;;;;;;6.38;3.42;;;;;;;;;;5032408;28;20439;-53
2021/10/15 07:24:29;;;;;;;6.75;3.22;;;;;;;;;;5032231;28;20033;-53
2021/10/15 07:26:55;;;;;;;7.88;3.53;;;;;;;;;;5032508;28;20022;-53
2021/10/15 07:29:21;;;;;;;12.43;3.80;;;;;;;;;;5032417;28;20037;-54
2021/10/15 07:31:47;;;;;;;5.60;3.33;;;;;;;;;;5032409;28;20436;-53
2021/10/15 07:34:13;;;;;;;6.25;3.25;;;;;;;;;;5030956;28;20112;-53
2021/10/15 07:36:40;;;;;;;6.10;3.15;;;;;;;;;;5031837;28;20079;-53
2021/10/15 07:39:06;;;;;;;7.70;3.97;;;;;;;;;;5032542;28;20344;-53
2021/10/15 07:41:33;;;;;;;8.05;2.95;;;;;;;;;;5032809;28;20034;-53
2021/10/15 07:43:59;;;;;;;7.75;4.13;;;;;;;;;;5031435;28;20101;-54
2021/10/15 07:46:25;;;;;;;3.88;2.75;;;;;;;;;;5032980;28;20033;-54
2021/10/15 07:48:51;;;;;;;6.68;3.35;;;;;;;;;;5032285;28;20099;-53
2021/10/15 07:51:17;;;;;;;13.25;3.65;;;;;;;;;;5032330;28;20380;-54
2021/10/15 07:53:43;;;;;;;11.60;3.47;;;;;;;;;;5031687;28;20100;-54
2021/10/15 07:56:09;;;;;;;6.65;3.35;;;;;;;;;;5032761;28;20445;-54
2021/10/15 07:58:36;;;;;;;8.10;3.25;;;;;;;;;;5034674;28;20079;-53
2021/10/15 08:01:02;;;;;;;7.82;3.92;;;;;;;;;;5036004;28;20025;-53
2021/10/15 08:03:28;;;;;;;5.85;3.33;;;;;;;;;;5035109;28;20040;-54
2021/10/15 08:05:54;;;;;;;10.10;3.53;;;;;;;;;;5035663;28;20407;-54
2021/10/15 08:08:20;;;;;;;7.03;3.63;;;;;;;;;;5035682;28;20041;-54
2021/10/15 08:10:46;;;;;;;9.45;3.97;;;;;;;;;;5035827;28;20022;-53
2021/10/15 08:13:13;;;;;;;7.70;4.18;;;;;;;;;;5035756;28;20487;-53
2021/10/15 08:15:40;;;;;;;6.50;3.53;;;;;;;;;;5035054;28;20025;-53
2021/10/15 08:18:06;;;;;;;7.18;3.38;;;;;;;;;;5035498;28;20044;-53
2021/10/15 08:20:32;;;;;;;8.18;4.03;;;;;;;;;;5035425;28;20025;-53
2021/10/15 08:22:58;;;;;;;9.55;4.00;;;;;;;;;;5035497;28;20339;-53
2021/10/15 08:25:25;;;;;;;11.68;3.88;;;;;;;;;;5034647;28;20068;-53
2021/10/15 08:27:51;;;;;;;6.35;3.20;;;;;;;;;;5035618;28;20022;-53
2021/10/15 08:30:17;;;;;;;6.28;4.47;;;;;;;;;;5034932;28;20341;-53
2021/10/15 08:32:43;;;;;;;6.55;3.47;;;;;;;;;;5035492;28;20025;-54
2021/10/15 08:35:10;;;;;;;7.30;3.95;;;;;;;;;;5034695;28;20113;-53
2021/10/15 08:37:36;;;;;;;7.47;3.47;;;;;;;;;;5035249;28;20041;-53
2021/10/15 08:40:03;;;;;;;6.90;3.42;;;;;;;;;;5034837;28;20447;-53
2021/10/15 08:42:29;;;;;;;9.18;3.85;;;;;;;;;;5035313;28;20033;-53
2021/10/15 08:44:55;;;;;;;7.10;3.75;;;;;;;;;;5034086;28;20053;-54
2021/10/15 08:47:21;;;;;;;5.55;3.35;;;;;;;;;;5034659;28;20049;-54
2021/10/15 08:49:47;;;;;;;8.15;3.88;;;;;;;;;;5037413;28;20093;-53
2021/10/15 08:52:14;;;;;;;8.38;4.22;;;;;;;;;;5037975;28;20088;-53
2021/10/15 08:54:43;;;;;;;11.65;4.10;;;;;;;;;;5050918;28;20036;-53
2021/10/15 08:57:13;;;;;;;9.73;4.05;;;;;;;;;;5052987;28;20155;-54
2021/10/15 08:59:43;;;;;;;6.32;3.90;;;;;;;;;;5034655;28;20029;-53
2021/10/15 09:02:20;;;;;;;11.02;4.00;;;;;;;;;;5034573;28;20336;-54
2021/10/15 09:04:47;;;;;;;7.97;3.80;;;;;;;;;;5034014;28;20328;-53
2021/10/15 09:07:16;;;;;;;8.57;3.97;;;;;;;;;;5034809;28;20394;-53
2021/10/15 09:09:43;;;;;;;9.85;4.32;;;;;;;;;;5034010;28;20029;-53
2021/10/15 09:12:08;;;;;;;12.10;5.00;;;;;;;;;;5034755;28;20025;-53
2021/10/15 09:14:36;;;;;;;8.32;4.88;;;;;;;;;;5033513;28;20116;-53
2021/10/15 09:17:29;;;;;;;10.63;4.45;;;;;;;;;;5034345;28;20029;-54
2021/10/15 09:19:55;;;;;;;9.65;4.68;;;;;;;;;;5034292;28;20034;-53
2021/10/15 09:22:23;;;;;;;9.93;4.18;;;;;;;;;;5034386;28;20029;-53
2021/10/15 09:24:59;;;;;;;7.25;4.25;;;;;;;;;;5033467;28;20363;-53
2021/10/15 09:27:32;;;;;;;9.23;4.10;;;;;;;;;;5033759;28;20040;-53
2021/10/15 09:29:58;;;;;;;8.30;4.32;;;;;;;;;;5034224;28;20159;-53
2021/10/15 09:32:25;;;;;;;12.55;4.57;;;;;;;;;;5034306;28;20056;-53
2021/10/15 09:34:52;;;;;;;7.85;3.90;;;;;;;;;;5033373;28;20029;-53
2021/10/15 09:37:22;;;;;;;10.10;5.15;;;;;;;;;;5034188;28;20037;-53
2021/10/15 09:39:49;;;;;;;9.75;4.25;;;;;;;;;;5033927;28;20026;-54
2021/10/15 09:42:19;;;;;;;9.95;4.03;;;;;;;;;;5033905;28;20061;-53
2021/10/15 09:44:45;;;;;;;8.88;4.50;;;;;;;;;;5033679;28;20043;-53
2021/10/15 09:47:23;;;;;;;10.55;5.05;;;;;;;;;;5033852;28;20032;-54
2021/10/15 09:50:09;;;;;;;11.40;5.50;;;;;;;;;;5033860;28;20083;-54
2021/10/15 09:52:37;;;;;;;8.35;4.90;;;;;;;;;;5033380;28;20037;-53
2021/10/15 09:55:06;;;;;;;9.80;4.68;;;;;;;;;;5033126;28;20325;-53
2021/10/15 09:57:37;;;;;;;13.52;4.85;;;;;;;;;;5033732;28;20034;-54
2021/10/15 10:00:05;;;;;;;8.38;4.03;;;;;;;;;;5033748;28;20024;-54
2021/10/15 10:02:31;;;;;;;6.93;4.47;;;;;;;;;;5033376;28;20025;-53
2021/10/15 10:04:58;;;;;;;9.30;4.47;;;;;;;;;;5032626;28;20406;-54
2021/10/15 10:07:24;;;;;;;12.52;4.60;;;;;;;;;;5033456;28;20056;-54
2021/10/15 10:09:51;;;;;;;14.82;5.03;;;;;;;;;;5033940;28;20048;-53
2021/10/15 10:12:17;;;;;;;6.93;4.13;;;;;;;;;;5033749;28;20048;-54
2021/10/15 10:14:43;;;;;;;8.85;4.78;;;;;;;;;;5032621;28;20049;-54
2021/10/15 10:17:11;;;;;;;10.98;5.10;;;;;;;;;;5033424;28;20056;-54
2021/10/15 10:19:38;;;;;;;13.40;5.60;;;;;;;;;;5032641;28;20040;-53
2021/10/15 10:22:05;;;;;;;10.68;4.78;;;;;;;;;;5032522;28;20561;-53
2021/10/15 10:24:32;;;;;;;15.25;4.88;;;;;;;;;;5032486;28;20034;-54
2021/10/15 10:26:59;;;;;;;14.68;5.20;;;;;;;;;;5033420;28;20030;-54
2021/10/15 10:29:26;;;;;;;14.82;5.82;;;;;;;;;;5033195;28;20060;-53
2021/10/15 10:31:53;;;;;;;11.43;4.13;;;;;;;;;;5032895;28;20351;-53
2021/10/15 10:34:23;;;;;;;12.50;4.65;;;;;;;;;;5032218;28;20026;-53
2021/10/15 10:37:02;;;;;;;18.85;5.78;;;;;;;;;;5033474;28;20018;-53
2021/10/15 10:39:28;;;;;;;10.27;5.03;;;;;;;;;;5032597;28;20042;-54
2021/10/15 10:42:15;;;;;;;15.07;6.18;;;;;;;;;;5033240;28;20025;-53
2021/10/15 10:44:50;;;;;;;6.50;3.63;;;;;;;;;;5031686;28;20029;-54
2021/10/15 10:47:17;;;;;;;10.00;5.13;;;;;;;;;;5033113;28;20026;-54
2021/10/15 10:50:04;;;;;;;8.98;4.70;;;;;;;;;;5032749;28;20456;-53
2021/10/15 10:52:30;;;;;;;9.88;4.63;;;;;;;;;;5032608;28;20118;-54
2021/10/15 10:54:56;;;;;;;14.05;5.43;;;;;;;;;;5031564;28;20096;-54
2021/10/15 10:57:24;;;;;;;8.77;4.80;;;;;;;;;;5033211;28;20041;-53
2021/10/15 10:59:51;;;;;;;8.20;5.18;;;;;;;;;;5032846;28;20366;-54
2021/10/15 11:02:19;;;;;;;12.52;4.95;;;;;;;;;;5033175;28;20033;-53
2021/10/15 11:04:45;;;;;;;7.97;4.45;;;;;;;;;;5031766;28;20033;-53
2021/10/15 11:07:20;;;;;;;7.38;4.00;;;;;;;;;;5032870;28;20018;-54
2021/10/15 11:09:47;;;;;;;10.52;4.80;;;;;;;;;;5032710;28;20053;-54
2021/10/15 11:12:33;;;;;;;13.43;5.10;;;;;;;;;;5032812;28;20477;-54
2021/10/15 11:15:00;;;;;;;7.25;4.25;;;;;;;;;;5031728;28;20103;-54
2021/10/15 11:17:33;;;;;;;7.88;4.07;;;;;;;;;;5032574;28;20109;-54
2021/10/15 11:20:19;;;;;;;11.10;4.45;;;;;;;;;;5031910;28;20025;-54
2021/10/15 11:23:05;;;;;;;7.90;4.35;;;;;;;;;;5032898;28;20134;-54
2021/10/15 11:25:37;;;;;;;11.55;4.22;;;;;;;;;;5031577;28;20025;-54
2021/10/15 11:28:05;;;;;;;8.30;4.25;;;;;;;;;;5032589;28;20455;-53
2021/10/15 11:30:33;;;;;;;9.65;4.45;;;;;;;;;;5032239;28;20533;-53
2021/10/15 11:33:00;;;;;;;6.95;3.38;;;;;;;;;;5033743;28;20061;-53
2021/10/15 11:35:30;;;;;;;7.35;3.72;;;;;;;;;;5034278;28;20025;-54
2021/10/15 11:38:03;;;;;;;10.02;4.35;;;;;;;;;;5036571;28;20421;-54
2021/10/15 11:40:31;;;;;;;9.73;4.82;;;;;;;;;;5036035;28;20030;-54
2021/10/15 11:43:07;;;;;;;9.70;4.15;;;;;;;;;;5036021;28;20056;-54
2021/10/15 11:45:34;;;;;;;9.10;4.20;;;;;;;;;;5035553;28;20039;-54
2021/10/15 11:48:08;;;;;;;8.98;4.53;;;;;;;;;;5036133;28;20032;-54
2021/10/15 11:50:37;;;;;;;5.25;3.35;;;;;;;;;;5036042;28;20026;-53
2021/10/15 11:53:03;;;;;;;8.50;4.28;;;;;;;;;;5036185;28;20025;-53
2021/10/15 11:55:31;;;;;;;9.85;4.38;;;;;;;;;;5035061;28;20053;-54
2021/10/15 11:58:16;;;;;;;7.38;4.20;;;;;;;;;;5036171;28;20044;-53
2021/10/15 12:01:00;;;;;;;4.45;2.88;;;;;;;;;;5035792;28;20075;-54
2021/10/15 12:03:34;;;;;;;11.25;4.35;;;;;;;;;;5035469;28;20026;-54
2021/10/15 12:06:10;;;;;;;6.72;4.05;;;;;;;;;;5035693;28;20068;-53
2021/10/15 12:08:37;;;;;;;10.65;4.90;;;;;;;;;;5035792;28;20064;-53
2021/10/15 12:11:04;;;;;;;8.77;3.72;;;;;;;;;;5035731;28;20029;-53
2021/10/15 12:13:30;;;;;;;5.55;3.28;;;;;;;;;;5035230;28;20029;-54
2021/10/15 12:15:56;;;;;;;6.47;3.22;;;;;;;;;;5035517;28;20076;-54
2021/10/15 12:18:29;;;;;;;7.60;4.03;;;;;;;;;;5035282;28;20033;-53
2021/10/15 12:21:08;;;;;;;9.10;4.13;;;;;;;;;;5035307;28;20079;-54
2021/10/15 12:23:49;;;;;;;6.03;3.22;;;;;;;;;;5034944;28;20025;-53
2021/10/15 12:26:19;;;;;;;5.65;3.22;;;;;;;;;;5035541;28;20051;-53
2021/10/15 12:28:45;;;;;;;9.07;3.88;;;;;;;;;;5035178;28;20026;-54
2021/10/15 12:31:23;;;;;;;6.88;3.63;;;;;;;;;;5035200;28;20124;-53
2021/10/15 12:33:59;;;;;;;7.30;3.13;;;;;;;;;;5034788;28;20029;-53
2021/10/15 12:36:25;;;;;;;5.68;3.50;;;;;;;;;;5035512;28;20036;-53
2021/10/15 12:38:51;;;;;;;7.75;3.63;;;;;;;;;;5035016;28;20034;-54
2021/10/15 12:41:26;;;;;;;6.75;3.53;;;;;;;;;;5034874;28;20108;-53
2021/10/15 12:43:54;;;;;;;8.23;3.28;;;;;;;;;;5034006;28;20041;-54
2021/10/15 12:46:21;;;;;;;9.70;3.85;;;;;;;;;;5034999;28;20028;-54
2021/10/15 12:49:01;;;;;;;10.52;3.42;;;;;;;;;;5035128;28;20109;-53
2021/10/15 12:51:36;;;;;;;5.75;2.83;;;;;;;;;;5035226;28;20406;-54
2021/10/15 12:54:02;;;;;;;6.63;3.55;;;;;;;;;;5034257;28;20071;-54
2021/10/15 12:56:31;;;;;;;7.38;2.97;;;;;;;;;;5034806;28;20029;-53
2021/10/15 12:58:58;;;;;;;9.57;3.80;;;;;;;;;;5034882;28;20462;-53
2021/10/15 13:01:32;;;;;;;5.72;2.85;;;;;;;;;;5034232;28;20356;-53
2021/10/15 13:04:00;;;;;;;7.18;3.22;;;;;;;;;;5033885;28;20029;-54
2021/10/15 13:06:26;;;;;;;5.50;3.47;;;;;;;;;;5034688;28;20025;-53
2021/10/15 13:08:54;;;;;;;8.75;3.78;;;;;;;;;;5035034;28;20017;-54
2021/10/15 13:11:21;;;;;;;10.25;3.28;;;;;;;;;;5034414;28;20447;-53
2021/10/15 13:13:48;;;;;;;5.95;2.55;;;;;;;;;;5033852;28;20021;-53
2021/10/15 13:16:14;;;;;;;5.85;2.38;;;;;;;;;;5034278;28;20358;-54
2021/10/15 13:18:40;;;;;;;8.52;3.20;;;;;;;;;;5034484;28;20044;-53
2021/10/15 13:21:07;;;;;;;4.55;2.88;;;;;;;;;;5034349;28;20029;-53
2021/10/15 13:23:33;;;;;;;8.93;3.55;;;;;;;;;;5033990;28;20362;-54
2021/10/15 13:25:59;;;;;;;6.82;3.03;;;;;;;;;;5034636;28;20026;-54
2021/10/15 13:28:25;;;;;;;5.93;3.70;;;;;;;;;;5034163;28;20040;-53
2021/10/15 13:30:51;;;;;;;4.72;2.88;;;;;;;;;;5034272;28;20030;-54
2021/10/15 13:33:18;;;;;;;10.35;2.85;;;;;;;;;;5034059;28;20057;-53
2021/10/15 13:35:47;;;;;;;5.85;2.70;;;;;;;;;;5033617;28;20045;-53
2021/10/15 13:38:16;;;;;;;7.85;2.88;;;;;;;;;;5033713;28;20033;-53
2021/10/15 13:40:55;;;;;;;5.30;2.75;;;;;;;;;;5034110;28;20032;-53
2021/10/15 13:46:18;;;;;;;9.07;3.05;;;;;;;;;;5034061;28;20081;-53
2021/10/15 13:51:30;;;;;;;12.45;4.18;;;;;;;;;;5033597;28;20091;-53
2021/10/15 13:53:56;;;;;;;6.88;4.00;;;;;;;;;;5033083;28;20025;-54
2021/10/15 13:56:22;;;;;;;5.60;2.85;;;;;;;;;;5033273;28;20029;-54
2021/10/15 13:58:50;;;;;;;4.32;3.13;;;;;;;;;;5033699;28;20041;-54
2021/10/15 14:01:19;;;;;;;6.60;2.85;;;;;;;;;;5033751;28;20030;-53
2021/10/15 14:06:14;;;;;;;3.47;2.05;;;;;;;;;;5034025;28;20025;-54
2021/10/15 14:08:40;;;;;;;3.63;2.40;;;;;;;;;;5032994;28;20036;-53
2021/10/15 14:11:06;;;;;;;4.03;1.85;;;;;;;;;;5033565;28;20084;-53
2021/10/15 14:13:33;;;;;;;2.75;1.98;;;;;;;;;;5032815;28;20032;-53
2021/10/15 14:15:59;;;;;;;4.05;2.05;;;;;;;;;;5033312;28;20021;-54
2021/10/15 14:18:25;;;;;;;3.25;1.90;;;;;;;;;;5033607;28;20044;-54
2021/10/15 14:20:52;;;;;;;2.55;1.77;;;;;;;;;;5033038;28;20032;-53
2021/10/15 14:23:18;;;;;;;3.20;1.80;;;;;;;;;;5033024;28;20060;-53
2021/10/15 14:25:44;;;;;;;5.32;2.45;;;;;;;;;;5032505;28;20432;-53
2021/10/15 14:28:12;;;;;;;5.03;2.70;;;;;;;;;;5033552;28;20040;-53
2021/10/15 14:30:38;;;;;;;3.30;1.88;;;;;;;;;;5032855;28;20033;-54
2021/10/15 14:33:04;;;;;;;2.58;1.90;;;;;;;;;;5033242;28;20030;-53
2021/10/15 14:35:30;;;;;;;3.70;1.92;;;;;;;;;;5032818;28;20087;-53
2021/10/15 14:37:56;;;;;;;12.75;2.67;;;;;;;;;;5032806;28;20064;-54
2021/10/15 14:40:22;;;;;;;3.40;2.08;;;;;;;;;;5033259;28;20025;-53
2021/10/15 14:42:48;;;;;;;4.72;2.10;;;;;;;;;;5033146;28;20072;-54
2021/10/15 14:45:15;;;;;;;3.42;2.10;;;;;;;;;;5032053;28;20351;-54
2021/10/15 14:47:40;;;;;;;2.30;1.90;;;;;;;;;;5033026;28;20033;-53
2021/10/15 14:50:07;;;;;;;4.90;1.80;;;;;;;;;;5032805;28;20055;-53
2021/10/15 14:52:33;;;;;;;4.72;2.35;;;;;;;;;;5036827;28;20411;-53
2021/10/15 14:54:59;;;;;;;6.40;2.20;;;;;;;;;;5048120;28;20040;-53
2021/10/15 14:57:25;;;;;;;9.10;2.22;;;;;;;;;;5052866;28;20028;-53
2021/10/15 14:59:52;;;;;;;7.00;2.33;;;;;;;;;;5046824;28;20397;-53
2021/10/15 15:02:18;;;;;;;5.50;1.90;;;;;;;;;;5032429;28;20033;-53